Time;durP1;ratioP1;P1;durP2;ratioP2;P2;SDS_P1;SDS_P2;PMS_P1;PMS_P2;Temp;Humidity;BMP_temperature;BMP_pressure;BME280_temperature;BME280_humidity;BME280_pressure;Samples;Min_cycle;Max_cycle;Signal;HPM_P1;HPM_P2
2021/09/07 00:02:24;;;;;;;2.60;1.90;;;;;;;12.03;100.00;101842.88;5061365;28;20393;-86
2021/09/07 00:04:52;;;;;;;3.90;2.20;;;;;;;11.96;100.00;101839.50;5056625;28;20049;-87
2021/09/07 00:07:25;;;;;;;2.67;2.05;;;;;;;11.94;100.00;101844.38;5070698;28;20428;-86
2021/09/07 00:09:58;;;;;;;3.63;2.40;;;;;;;11.87;100.00;101839.97;5080467;28;20044;-87
2021/09/07 00:12:32;;;;;;;3.80;2.40;;;;;;;11.89;100.00;101837.81;5055969;28;20052;-87
2021/09/07 00:15:10;;;;;;;2.45;1.92;;;;;;;11.86;100.00;101842.94;5071335;28;20051;-86
2021/09/07 00:17:44;;;;;;;2.40;1.92;;;;;;;11.78;100.00;101829.78;5066463;28;20048;-86
2021/09/07 00:20:17;;;;;;;5.22;2.17;;;;;;;11.81;100.00;101829.28;5058764;28;20071;-87
2021/09/07 00:22:51;;;;;;;2.38;1.92;;;;;;;11.77;100.00;101828.97;5060428;28;20103;-86
2021/09/07 00:25:24;;;;;;;2.80;2.10;;;;;;;11.77;100.00;101831.69;5061295;28;20063;-86
2021/09/07 00:27:57;;;;;;;2.80;2.08;;;;;;;11.80;100.00;101833.91;5080012;28;20059;-87
2021/09/07 00:30:32;;;;;;;2.83;2.05;;;;;;;11.76;100.00;101827.31;5068917;28;20045;-87
2021/09/07 00:33:08;;;;;;;2.67;2.00;;;;;;;11.77;100.00;101834.44;5060367;28;20037;-86
2021/09/07 00:35:41;;;;;;;3.00;2.00;;;;;;;11.77;100.00;101841.81;5062061;28;20045;-87
2021/09/07 00:38:10;;;;;;;3.05;2.15;;;;;;;11.77;100.00;101845.34;5069521;28;20122;-87
2021/09/07 00:41:03;;;;;;;4.15;2.20;;;;;;;11.77;100.00;101842.63;5066365;28;20041;-86
2021/09/07 00:43:36;;;;;;;2.53;1.98;;;;;;;11.77;100.00;101839.06;5074526;28;20040;-86
2021/09/07 00:46:10;;;;;;;4.70;2.53;;;;;;;11.79;100.00;101845.88;5068015;28;20048;-87
2021/09/07 00:48:44;;;;;;;3.72;2.33;;;;;;;11.68;100.00;101830.53;5067705;28;20032;-86
2021/09/07 00:51:17;;;;;;;3.90;2.47;;;;;;;11.69;100.00;101830.25;5066346;28;20063;-87
2021/09/07 00:53:46;;;;;;;3.15;2.10;;;;;;;11.62;100.00;101826.94;5059955;28;20068;-87
2021/09/07 00:56:19;;;;;;;4.35;2.30;;;;;;;11.70;100.00;101825.66;5066048;28;20052;-85
2021/09/07 00:58:53;;;;;;;3.72;2.35;;;;;;;11.63;100.00;101822.28;5057719;28;20505;-87
2021/09/07 01:01:27;;;;;;;3.47;2.47;;;;;;;11.66;100.00;101821.78;5070509;28;20480;-81
2021/09/07 01:04:01;;;;;;;3.13;2.20;;;;;;;11.62;100.00;101828.84;5065720;28;20056;-88
2021/09/07 01:06:35;;;;;;;2.60;2.10;;;;;;;11.64;100.00;101832.13;5068481;28;20412;-87
2021/09/07 01:09:11;;;;;;;3.45;2.40;;;;;;;11.56;100.00;101826.06;5062923;28;20044;-86
2021/09/07 01:11:46;;;;;;;2.80;2.05;;;;;;;11.57;100.00;101824.16;5064900;28;20067;-86
2021/09/07 01:14:28;;;;;;;4.28;2.40;;;;;;;11.49;100.00;101824.63;5055766;28;20052;-86
2021/09/07 01:17:04;;;;;;;2.92;2.10;;;;;;;11.45;100.00;101827.06;5069274;28;20052;-86
2021/09/07 01:19:37;;;;;;;2.00;1.80;;;;;;;11.37;100.00;101820.16;5074312;28;20412;-86
2021/09/07 01:22:11;;;;;;;2.72;1.92;;;;;;;11.39;100.00;101817.16;5074409;28;20045;-84
2021/09/07 01:24:46;;;;;;;4.22;2.10;;;;;;;11.38;100.00;101819.06;5053149;28;20108;-86
2021/09/07 01:27:20;;;;;;;3.25;2.10;;;;;;;11.33;100.00;101818.19;5062432;28;20037;-87
2021/09/07 01:29:53;;;;;;;4.70;2.20;;;;;;;11.34;100.00;101811.69;5081807;28;20054;-86
2021/09/07 01:32:27;;;;;;;4.15;2.45;;;;;;;11.29;100.00;101814.34;5069983;28;20040;-86
2021/09/07 01:34:55;;;;;;;2.75;2.17;;;;;;;11.29;100.00;101814.34;5059391;28;20060;-86
2021/09/07 01:37:24;;;;;;;2.58;1.92;;;;;;;11.24;100.00;101806.91;5066537;28;20511;-86
2021/09/07 01:39:58;;;;;;;4.03;2.50;;;;;;;11.28;100.00;101823.59;5066789;28;20048;-86
2021/09/07 01:42:32;;;;;;;3.67;2.10;;;;;;;11.25;100.00;101818.66;5066402;28;20045;-88
2021/09/07 01:45:06;;;;;;;2.80;2.20;;;;;;;11.19;100.00;101823.25;5074843;28;20668;-85
2021/09/07 01:47:40;;;;;;;3.10;1.90;;;;;;;11.16;100.00;101818.31;5065129;28;20049;-86
2021/09/07 01:50:09;;;;;;;2.88;2.20;;;;;;;11.16;100.00;101818.31;5070124;28;20032;-87
2021/09/07 01:52:42;;;;;;;3.63;2.28;;;;;;;11.18;100.00;101825.13;5059890;28;20048;-86
2021/09/07 01:55:18;;;;;;;3.83;2.58;;;;;;;11.17;100.00;101822.66;5057952;28;20056;-86
2021/09/07 01:57:52;;;;;;;3.75;2.50;;;;;;;11.19;100.00;101823.25;5066384;28;20056;-85
2021/09/07 02:00:20;;;;;;;3.78;2.17;;;;;;;11.19;100.00;101820.50;5071091;28;20385;-86
2021/09/07 02:02:50;;;;;;;3.20;2.42;;;;;;;11.20;100.00;101830.34;5068352;28;20056;-86
2021/09/07 02:05:19;;;;;;;3.60;2.40;;;;;;;11.14;100.00;101823.97;5070587;28;20047;-86
2021/09/07 02:07:53;;;;;;;3.35;2.38;;;;;;;11.14;100.00;101828.63;5066605;28;20416;-86
2021/09/07 02:10:22;;;;;;;3.13;2.20;;;;;;;11.16;100.00;101831.94;5069510;28;20047;-86
2021/09/07 02:12:51;;;;;;;3.67;2.33;;;;;;;11.16;100.00;101827.28;5066336;28;20044;-86
2021/09/07 02:15:24;;;;;;;3.35;2.13;;;;;;;11.12;100.00;101825.34;5069163;28;20040;-84
2021/09/07 02:17:57;;;;;;;2.92;2.28;;;;;;;11.14;100.00;101832.16;5066243;28;20405;-86
2021/09/07 02:20:27;;;;;;;2.88;2.15;;;;;;;11.12;100.00;101838.97;5063907;28;20052;-86
2021/09/07 02:23:00;;;;;;;3.22;2.40;;;;;;;11.14;100.00;101836.78;5060717;28;20131;-86
2021/09/07 02:25:35;;;;;;;2.97;2.13;;;;;;;11.09;100.00;101829.41;5068039;28;20037;-86
2021/09/07 02:28:05;;;;;;;3.60;2.30;;;;;;;11.08;100.00;101835.91;5071208;28;20044;-85
2021/09/07 02:30:38;;;;;;;4.03;2.47;;;;;;;11.09;100.00;101829.41;5053674;28;20412;-87
2021/09/07 02:33:09;;;;;;;4.38;2.50;;;;;;;11.01;100.00;101829.84;5071318;28;20531;-86
2021/09/07 02:35:37;;;;;;;3.88;2.55;;;;;;;11.06;100.00;101828.00;5071516;28;20048;-86
2021/09/07 02:38:10;;;;;;;3.60;2.50;;;;;;;11.05;100.00;101820.09;5058718;28;20056;-85
2021/09/07 02:40:45;;;;;;;3.75;2.67;;;;;;;11.04;100.00;101821.16;5059126;28;20697;-86
2021/09/07 02:43:19;;;;;;;4.47;2.47;;;;;;;10.99;100.00;101815.66;5062803;28;20052;-86
2021/09/07 02:45:48;;;;;;;3.15;2.45;;;;;;;11.00;100.00;101822.75;5059869;28;20053;-86
2021/09/07 02:48:16;;;;;;;3.17;2.40;;;;;;;10.98;100.00;101822.16;5062544;28;20078;-85
2021/09/07 02:50:44;;;;;;;2.80;2.30;;;;;;;10.89;100.00;101810.91;5063662;28;20049;-85
2021/09/07 02:53:18;;;;;;;3.75;2.80;;;;;;;10.93;100.00;101820.22;5060166;28;20051;-86
2021/09/07 02:55:53;;;;;;;3.75;2.55;;;;;;;10.94;100.00;101818.31;5054142;28;20049;-85
2021/09/07 02:58:22;;;;;;;2.75;2.22;;;;;;;10.92;100.00;101821.28;5068925;28;20040;-85
2021/09/07 03:00:51;;;;;;;3.78;2.60;;;;;;;10.92;100.00;101818.56;5063568;28;20540;-85
2021/09/07 03:03:22;;;;;;;3.30;2.30;;;;;;;10.88;100.00;101818.25;5074076;28;20051;-85
2021/09/07 03:05:58;;;;;;;4.18;2.70;;;;;;;10.89;100.00;101816.34;5056271;28;20049;-85
2021/09/07 03:08:26;;;;;;;2.88;2.20;;;;;;;10.88;100.00;101811.97;5058839;28;20049;-86
2021/09/07 03:11:01;;;;;;;3.55;2.65;;;;;;;10.83;100.00;101818.19;5065118;28;20044;-86
2021/09/07 03:13:29;;;;;;;3.78;2.30;;;;;;;10.81;100.00;101814.91;5059788;28;20048;-85
2021/09/07 03:16:02;;;;;;;3.28;2.40;;;;;;;10.79;100.00;101813.50;5057968;28;20068;-85
2021/09/07 03:18:31;;;;;;;4.05;2.47;;;;;;;10.79;100.00;101811.59;5063547;28;20060;-85
2021/09/07 03:21:06;;;;;;;3.17;2.22;;;;;;;10.75;100.00;101813.19;5059151;28;20060;-85
2021/09/07 03:23:39;;;;;;;3.70;2.40;;;;;;;10.71;100.00;101815.59;5054495;28;20381;-85
2021/09/07 03:26:16;;;;;;;3.47;2.38;;;;;;;10.75;100.00;101815.91;5067629;28;20728;-85
2021/09/07 03:28:50;;;;;;;3.45;2.50;;;;;;;10.72;100.00;101819.97;5061658;28;20045;-85
2021/09/07 03:31:24;;;;;;;3.13;2.45;;;;;;;10.69;100.00;101820.47;5069419;28;20048;-85
2021/09/07 03:33:57;;;;;;;4.57;2.38;;;;;;;10.67;100.00;101825.31;5088999;28;20464;-85
2021/09/07 03:36:30;;;;;;;3.20;2.30;;;;;;;10.67;100.00;101825.31;5060543;28;20389;-85
2021/09/07 03:39:04;;;;;;;3.45;2.65;;;;;;;10.65;100.00;101826.69;5066836;28;20041;-86
2021/09/07 03:41:39;;;;;;;3.38;2.35;;;;;;;10.64;100.00;101828.56;5059351;28;20049;-86
2021/09/07 03:44:13;;;;;;;3.63;2.55;;;;;;;10.60;100.00;101826.59;5077483;28;20048;-86
2021/09/07 03:46:47;;;;;;;3.80;2.40;;;;;;;10.59;100.00;101835.84;5056915;28;20048;-86
2021/09/07 03:49:22;;;;;;;4.07;2.60;;;;;;;10.54;100.00;101828.44;5061976;28;20048;-84
2021/09/07 03:51:52;;;;;;;3.47;2.60;;;;;;;10.61;100.00;101829.06;5064988;28;20040;-85
2021/09/07 03:54:26;;;;;;;2.90;2.20;;;;;;;10.56;100.00;101826.28;5057913;28;20056;-84
2021/09/07 03:56:55;;;;;;;3.67;2.60;;;;;;;10.54;100.00;101829.25;5058908;28;20040;-84
2021/09/07 03:59:25;;;;;;;4.03;2.63;;;;;;;10.49;100.00;101831.09;5072450;28;20064;-86
2021/09/07 04:01:59;;;;;;;4.70;2.50;;;;;;;10.55;100.00;101836.34;5064620;28;20052;-85
2021/09/07 04:04:33;;;;;;;3.08;2.15;;;;;;;10.55;100.00;101836.34;5075206;28;20508;-85
2021/09/07 04:07:06;;;;;;;3.13;2.35;;;;;;;10.53;100.00;101833.03;5062816;28;20060;-85
2021/09/07 04:09:40;;;;;;;3.40;2.45;;;;;;;10.55;100.00;101835.53;5062471;28;20041;-86
2021/09/07 04:12:15;;;;;;;3.28;2.17;;;;;;;10.52;100.00;101834.13;5063289;28;20041;-86
2021/09/07 04:14:48;;;;;;;4.07;2.67;;;;;;;10.50;100.00;101839.00;5052933;28;20057;-85
2021/09/07 04:17:19;;;;;;;3.60;2.50;;;;;;;10.49;100.00;101837.34;5063158;28;20049;-86
2021/09/07 04:19:52;;;;;;;3.92;2.50;;;;;;;10.46;100.00;101839.75;5059397;28;20048;-86
2021/09/07 04:22:25;;;;;;;4.05;2.63;;;;;;;10.45;100.00;101847.06;5059282;28;20052;-85
2021/09/07 04:24:58;;;;;;;3.97;2.60;;;;;;;10.41;100.00;101845.13;5057679;28;20060;-86
2021/09/07 04:27:28;;;;;;;3.28;2.33;;;;;;;10.45;100.00;101846.25;5069612;28;20052;-85
2021/09/07 04:30:01;;;;;;;2.83;2.33;;;;;;;10.44;100.00;101841.88;5063794;28;20497;-86
2021/09/07 04:32:34;;;;;;;3.08;2.20;;;;;;;10.42;100.00;101852.22;5057624;28;20048;-87
2021/09/07 04:35:08;;;;;;;3.08;2.20;;;;;;;10.38;100.00;101852.72;5058190;28;20045;-86
2021/09/07 04:37:41;;;;;;;3.78;2.47;;;;;;;10.39;100.00;101853.53;5065183;28;20067;-87
2021/09/07 04:40:10;;;;;;;4.47;2.38;;;;;;;10.41;100.00;101851.38;5071388;28;20511;-86
2021/09/07 04:42:45;;;;;;;3.42;2.55;;;;;;;10.42;100.00;101858.47;5064892;28;20041;-86
2021/09/07 04:45:13;;;;;;;4.35;2.50;;;;;;;10.43;100.00;101857.41;5064501;28;20054;-86
2021/09/07 04:47:47;;;;;;;4.00;2.50;;;;;;;10.45;100.00;101851.72;5071382;28;20056;-85
2021/09/07 04:50:21;;;;;;;3.45;2.42;;;;;;;10.46;100.00;101854.16;5059854;28;20088;-85
2021/09/07 04:52:49;;;;;;;3.17;2.30;;;;;;;10.51;100.00;101862.41;5063774;28;20060;-86
2021/09/07 04:55:23;;;;;;;3.42;2.58;;;;;;;10.50;100.00;101854.50;5070175;28;20044;-86
2021/09/07 04:57:57;;;;;;;2.75;2.25;;;;;;;10.54;100.00;101864.63;5060145;28;20059;-85
2021/09/07 05:00:30;;;;;;;3.30;2.63;;;;;;;10.57;100.00;101859.78;5054876;28;20052;-86
2021/09/07 05:03:04;;;;;;;3.72;2.53;;;;;;;10.67;100.00;101870.81;5058346;28;20477;-86
2021/09/07 05:05:32;;;;;;;3.72;2.60;;;;;;;10.70;100.00;101868.41;5059301;28;20055;-86
2021/09/07 05:08:00;;;;;;;3.92;2.80;;;;;;;10.76;100.00;101868.44;5063306;28;20054;-87
2021/09/07 05:10:29;;;;;;;3.63;2.78;;;;;;;10.83;100.00;101875.38;5061611;28;20044;-87
2021/09/07 05:13:04;;;;;;;3.72;2.55;;;;;;;10.85;100.00;101869.69;5058044;28;20052;-86
2021/09/07 05:15:37;;;;;;;3.60;2.40;;;;;;;10.91;100.00;101865.97;5061705;28;20079;-86
2021/09/07 05:18:10;;;;;;;3.28;2.42;;;;;;;10.97;100.00;101873.09;5052010;28;20382;-86
2021/09/07 05:20:38;;;;;;;3.58;2.70;;;;;;;11.06;100.00;101879.75;5050526;28;20045;-87
2021/09/07 05:23:11;;;;;;;3.55;2.55;;;;;;;11.14;100.00;101874.94;5059490;28;20048;-86
2021/09/07 05:25:45;;;;;;;3.63;2.45;;;;;;;11.23;100.00;101871.50;5064962;28;20047;-86
2021/09/07 05:28:19;;;;;;;3.03;2.22;;;;;;;11.30;100.00;101871.31;5054200;28;20049;-86
2021/09/07 05:30:47;;;;;;;4.15;2.75;;;;;;;11.31;100.00;101858.50;5056483;28;20041;-86
2021/09/07 05:33:22;;;;;;;3.88;2.58;;;;;;;11.40;100.00;101868.69;5053953;28;20064;-87
2021/09/07 05:35:53;;;;;;;3.03;2.30;;;;;;;11.47;100.00;101870.41;5058202;28;20041;-87
2021/09/07 05:38:26;;;;;;;3.60;2.50;;;;;;;11.52;100.00;101875.91;5061659;28;20078;-86
2021/09/07 05:40:59;;;;;;;3.83;2.60;;;;;;;11.64;100.00;101870.28;5056691;28;20049;-87
2021/09/07 05:43:29;;;;;;;3.28;2.33;;;;;;;11.75;100.00;101872.03;5065918;28;20475;-86
2021/09/07 05:46:04;;;;;;;3.20;2.35;;;;;;;11.83;100.00;101866.09;5057290;28;20063;-87
2021/09/07 05:48:37;;;;;;;3.25;2.35;;;;;;;11.86;100.00;101867.50;5054060;28;20041;-87
2021/09/07 05:51:06;;;;;;;5.28;2.80;;;;;;;11.70;100.00;101837.38;5066200;28;20041;-86
2021/09/07 05:53:35;;;;;;;3.47;2.45;;;;;;;11.98;100.00;101868.19;5066170;28;20041;-88
2021/09/07 05:56:14;;;;;;;3.50;2.35;;;;;;;11.81;100.00;101845.66;5062894;28;20052;-87
2021/09/07 05:58:49;;;;;;;4.18;2.47;;;;;;;11.87;100.00;101855.50;5057161;28;20615;-85
2021/09/07 06:01:19;;;;;;;3.10;2.10;;;;;;;11.82;100.00;101839.94;5061792;28;20053;-86
2021/09/07 06:03:52;;;;;;;3.90;2.45;;;;;;;12.08;100.00;101875.63;5057086;28;20045;-87
2021/09/07 06:06:21;;;;;;;3.42;2.38;;;;;;;11.97;100.00;101838.44;5057253;28;20481;-87
2021/09/07 06:08:57;;;;;;;4.25;2.60;;;;;;;12.01;100.00;101850.47;5051942;28;20603;-87
2021/09/07 06:11:29;;;;;;;3.15;2.10;;;;;;;11.84;100.00;101826.84;5051267;28;20417;-88
2021/09/07 06:13:59;;;;;;;2.45;2.00;;;;;;;12.31;100.00;101888.09;5057713;28;20052;-88
2021/09/07 06:16:27;;;;;;;2.92;2.03;;;;;;;12.49;100.00;101883.31;5069313;28;20045;-87
2021/09/07 06:18:55;;;;;;;2.28;1.92;;;;;;;12.55;100.00;101885.81;5061076;28;20063;-85
2021/09/07 06:21:35;;;;;;;2.90;2.20;;;;;;;12.61;100.00;101885.81;5068096;28;20052;-85
2021/09/07 06:24:09;;;;;;;2.78;2.30;;;;;;;12.53;100.00;101876.22;5057825;28;20049;-86
2021/09/07 06:26:43;;;;;;;2.58;2.08;;;;;;;12.64;100.00;101880.66;5062782;28;20052;-84
2021/09/07 06:29:17;;;;;;;2.90;2.10;;;;;;;12.76;100.00;101888.66;5055242;28;20055;-84
2021/09/07 06:31:50;;;;;;;2.88;2.15;;;;;;;13.01;100.00;101887.13;5057757;28;20052;-84
2021/09/07 06:34:25;;;;;;;2.63;2.10;;;;;;;13.04;100.00;101884.69;5057255;28;20057;-86
2021/09/07 06:36:54;;;;;;;2.63;2.10;;;;;;;12.90;100.00;101876.16;5057820;28;20059;-85
2021/09/07 06:39:23;;;;;;;3.00;2.10;;;;;;;13.09;100.00;101883.88;5063455;28;20056;-84
2021/09/07 06:41:56;;;;;;;3.40;2.10;;;;;;;13.13;100.00;101887.72;5060568;28;20511;-85
2021/09/07 06:44:26;;;;;;;2.90;2.10;;;;;;;13.16;100.00;101894.56;5066514;28;20057;-85
2021/09/07 06:47:00;;;;;;;2.90;1.95;;;;;;;13.05;100.00;101896.41;5063121;28;20045;-86
2021/09/07 06:49:29;;;;;;;2.30;1.83;;;;;;;12.97;100.00;101895.03;5055715;28;20049;-86
2021/09/07 06:52:02;;;;;;;2.25;1.83;;;;;;;12.92;100.00;101890.34;5057008;28;20397;-86
2021/09/07 06:54:30;;;;;;;4.20;2.00;;;;;;;12.93;100.00;101888.47;5056581;28;20056;-86
2021/09/07 06:57:04;;;;;;;2.58;1.95;;;;;;;13.12;100.00;101902.50;5062633;28;20408;-88
2021/09/07 06:59:34;;;;;;;3.45;2.08;;;;;;;13.20;100.00;101901.97;5065243;28;20420;-87
2021/09/07 07:02:04;;;;;;;4.28;2.00;;;;;;;12.97;100.00;101883.28;5073070;28;20062;-88
2021/09/07 07:04:32;;;;;;;2.58;1.80;;;;;;;13.11;100.00;101903.56;5068268;28;20775;-85
2021/09/07 07:07:00;;;;;;;2.38;2.00;;;;;;;13.35;100.00;101906.69;5074507;28;20048;-85
2021/09/07 07:09:28;;;;;;;2.58;1.83;;;;;;;13.20;100.00;101910.19;5070241;28;21141;-86
2021/09/07 07:11:57;;;;;;;3.25;2.17;;;;;;;13.07;100.00;101906.00;5069958;28;20055;-84
2021/09/07 07:14:30;;;;;;;2.35;1.80;;;;;;;13.43;100.00;101919.03;5068329;28;20082;-86
2021/09/07 07:17:05;;;;;;;2.40;1.90;;;;;;;13.38;100.00;101914.38;5066899;28;20057;-86
2021/09/07 07:19:34;;;;;;;2.75;1.80;;;;;;;13.55;99.59;101921.53;5068172;28;20553;-86
2021/09/07 07:22:02;;;;;;;2.05;1.77;;;;;;;13.46;100.00;101920.41;5072565;28;20048;-85
2021/09/07 07:24:35;;;;;;;3.30;2.00;;;;;;;13.39;100.00;101909.72;5069192;28;20056;-84
2021/09/07 07:27:09;;;;;;;2.75;2.00;;;;;;;13.42;100.00;101909.16;5071956;28;20059;-87
2021/09/07 07:29:37;;;;;;;2.22;1.80;;;;;;;13.45;100.00;101922.31;5071135;28;20059;-85
2021/09/07 07:32:12;;;;;;;2.20;1.80;;;;;;;13.29;100.00;101920.59;5072645;28;20059;-86
2021/09/07 07:34:40;;;;;;;3.03;1.80;;;;;;;13.52;100.00;101922.03;5071453;28;20063;-86
2021/09/07 07:37:14;;;;;;;2.28;1.85;;;;;;;13.76;100.00;101922.38;5071341;28;20062;-84
2021/09/07 07:39:47;;;;;;;2.58;1.98;;;;;;;13.89;100.00;101919.13;5065822;28;20677;-85
2021/09/07 07:42:46;;;;;;;2.30;1.77;;;;;;;13.93;100.00;101917.50;5065096;28;20044;-86
2021/09/07 07:45:19;;;;;;;2.05;1.85;;;;;;;13.84;99.92;101910.91;5066805;28;20447;-86
2021/09/07 07:47:49;;;;;;;1.73;1.45;;;;;;;13.96;99.45;101924.31;5061089;28;20052;-86
2021/09/07 07:50:18;;;;;;;2.53;1.80;;;;;;;14.05;99.00;101930.91;5067513;28;20078;-85
2021/09/07 07:52:46;;;;;;;3.00;1.70;;;;;;;14.09;99.20;101926.53;5057460;28;20052;-85
2021/09/07 07:55:14;;;;;;;2.80;1.55;;;;;;;14.28;97.68;101926.00;5057578;28;20048;-87
2021/09/07 07:57:43;;;;;;;1.60;1.45;;;;;;;14.25;98.18;101927.38;5062470;28;21286;-83
2021/09/07 08:00:19;;;;;;;1.75;1.40;;;;;;;14.19;96.34;101930.38;5068608;28;20079;-87
2021/09/07 08:02:53;;;;;;;3.88;1.45;;;;;;;14.59;93.81;101924.03;5066972;28;20044;-86
2021/09/07 08:05:26;;;;;;;2.08;1.55;;;;;;;14.51;93.59;101924.59;5067194;28;20036;-86
2021/09/07 08:08:00;;;;;;;1.42;1.10;;;;;;;14.59;92.06;101924.03;5063527;28;20052;-87
2021/09/07 08:10:35;;;;;;;1.30;1.10;;;;;;;14.62;90.82;101925.41;5067679;28;20060;-88
2021/09/07 08:13:10;;;;;;;1.65;1.15;;;;;;;14.68;92.41;101927.06;5061762;28;20060;-83
2021/09/07 08:15:38;;;;;;;2.00;1.30;;;;;;;14.73;91.68;101924.31;5057793;28;20059;-87
2021/09/07 08:18:10;;;;;;;1.35;1.23;;;;;;;14.80;90.26;101921.28;5060704;28;20066;-88
2021/09/07 08:20:43;;;;;;;1.83;1.30;;;;;;;14.86;90.11;101930.31;5062757;28;21455;-85
2021/09/07 08:23:18;;;;;;;2.03;1.30;;;;;;;15.06;90.52;101930.25;5058751;28;20048;-84
2021/09/07 08:25:46;;;;;;;1.42;1.20;;;;;;;14.99;92.99;101926.16;5056848;28;20071;-86
2021/09/07 08:28:20;;;;;;;1.27;1.10;;;;;;;14.98;92.24;101939.03;5060837;28;20052;-88
2021/09/07 08:30:53;;;;;;;1.10;1.00;;;;;;;15.47;88.74;101940.22;5055554;28;20071;-84
2021/09/07 08:33:28;;;;;;;2.00;1.30;;;;;;;15.14;90.76;101939.81;5063177;28;21473;-87
2021/09/07 08:36:01;;;;;;;1.85;1.27;;;;;;;15.47;89.65;101940.22;5060400;28;20061;-83
2021/09/07 08:38:35;;;;;;;1.95;1.20;;;;;;;15.51;87.43;101943.22;5059130;28;20078;-84
2021/09/07 08:41:04;;;;;;;1.42;1.08;;;;;;;15.48;89.59;101942.69;5058626;28;20056;-84
2021/09/07 08:43:33;;;;;;;1.75;1.10;;;;;;;15.67;82.51;101943.97;5063511;28;20066;-86
2021/09/07 08:46:06;;;;;;;1.13;1.02;;;;;;;15.73;83.38;101946.41;5061125;28;20125;-86
2021/09/07 08:48:41;;;;;;;1.35;1.20;;;;;;;15.76;86.12;101945.00;5055860;28;22083;-86
2021/09/07 08:51:10;;;;;;;1.30;1.00;;;;;;;15.88;84.62;101940.03;5059099;28;20052;-88
2021/09/07 08:53:38;;;;;;;1.20;1.00;;;;;;;16.09;83.69;101948.94;5056639;28;20048;-84
2021/09/07 08:56:07;;;;;;;1.20;1.05;;;;;;;15.87;83.64;101943.88;5057664;28;20142;-86
2021/09/07 08:58:41;;;;;;;1.13;1.02;;;;;;;15.93;83.61;101941.91;5053992;28;20059;-86
2021/09/07 09:01:11;;;;;;;1.75;1.10;;;;;;;16.00;84.44;101939.66;5053095;28;20063;-84
2021/09/07 09:03:42;;;;;;;2.60;1.00;;;;;;;16.10;83.40;101942.34;5059842;28;20052;-86
2021/09/07 09:06:11;;;;;;;1.08;0.98;;;;;;;16.03;78.96;101944.56;5055491;28;20071;-86
2021/09/07 09:08:44;;;;;;;1.10;1.00;;;;;;;16.13;80.79;101947.25;5058360;28;20060;-86
2021/09/07 09:11:18;;;;;;;0.90;0.90;;;;;;;16.13;82.69;101944.50;5051236;28;20055;-86
2021/09/07 09:13:51;;;;;;;1.25;1.10;;;;;;;16.17;79.85;101950.22;5055423;28;20048;-86
2021/09/07 09:16:32;;;;;;;1.48;1.02;;;;;;;16.13;81.97;101944.50;5056461;28;20056;-87
2021/09/07 09:19:07;;;;;;;1.52;1.00;;;;;;;16.60;78.66;101950.41;5059181;28;20052;-84
2021/09/07 09:21:48;;;;;;;2.08;1.10;;;;;;;16.54;77.81;101951.56;5053649;28;20075;-84
2021/09/07 09:24:24;;;;;;;1.10;1.00;;;;;;;16.54;77.95;101956.25;5060690;28;20071;-84
2021/09/07 09:26:54;;;;;;;1.50;1.10;;;;;;;16.64;79.45;101951.47;5057737;28;20055;-84
2021/09/07 09:29:29;;;;;;;0.80;0.80;;;;;;;16.49;78.97;101946.13;5061665;28;20386;-85
2021/09/07 09:31:59;;;;;;;0.93;0.88;;;;;;;16.49;77.57;101946.94;5057988;28;20059;-85
2021/09/07 09:34:35;;;;;;;1.15;1.00;;;;;;;16.52;77.68;101944.69;5060571;28;20044;-84
2021/09/07 09:37:11;;;;;;;1.20;1.00;;;;;;;16.55;76.59;101944.97;5061617;28;20059;-86
2021/09/07 09:39:46;;;;;;;1.08;0.80;;;;;;;16.55;73.84;101946.91;5059079;28;20044;-86
2021/09/07 09:42:24;;;;;;;0.90;0.90;;;;;;;16.91;74.17;101943.81;5059739;28;21457;-87
2021/09/07 09:45:01;;;;;;;0.80;0.80;;;;;;;16.71;73.87;101936.56;5056031;28;21258;-89
2021/09/07 09:47:34;;;;;;;0.90;0.70;;;;;;;16.68;73.49;101921.47;5058050;28;20059;-88
2021/09/07 09:50:13;;;;;;;0.95;0.70;;;;;;;16.82;72.82;101941.66;5050209;28;20054;-84
2021/09/07 09:52:48;;;;;;;1.25;0.80;;;;;;;16.98;71.20;101930.53;5051696;28;20056;-88
2021/09/07 09:55:23;;;;;;;0.75;0.70;;;;;;;16.97;71.09;101928.88;5061851;28;20051;-83
2021/09/07 09:57:58;;;;;;;0.85;0.73;;;;;;;17.04;74.49;101929.38;5055268;28;20057;-88
2021/09/07 10:00:31;;;;;;;1.05;0.90;;;;;;;17.12;73.85;101927.88;5055632;28;20056;-88
2021/09/07 10:03:01;;;;;;;0.70;0.70;;;;;;;17.17;74.06;101927.81;5054262;28;20074;-84
2021/09/07 10:05:36;;;;;;;0.80;0.80;;;;;;;17.33;68.49;101915.50;5064119;28;20056;-87
2021/09/07 10:08:11;;;;;;;0.60;0.60;;;;;;;17.21;67.78;101919.78;5061315;28;20059;-84
2021/09/07 10:10:53;;;;;;;1.17;0.93;;;;;;;17.12;71.83;101925.97;5061505;28;20067;-84
2021/09/07 10:13:28;;;;;;;0.80;0.70;;;;;;;17.12;72.67;101920.47;5059877;28;20055;-84
2021/09/07 10:16:06;;;;;;;0.70;0.70;;;;;;;16.99;70.10;101899.97;5058159;28;20706;-85
2021/09/07 10:18:50;;;;;;;0.90;0.70;;;;;;;17.32;67.07;101916.63;5056485;28;20067;-83
2021/09/07 10:24:54;;;;;;;0.90;0.73;;;;;;;17.67;65.41;101917.22;5056342;28;20505;-86
2021/09/07 10:28:05;;;;;;;0.60;0.60;;;;;;;17.54;67.15;101920.75;5055991;28;20056;-84
2021/09/07 10:30:52;;;;;;;;;;;;;;;17.70;66.62;101915.00;5057666;28;20048;-87
2021/09/07 10:33:33;;;;;;;0.70;0.70;;;;;;;17.48;64.73;101913.66;5060398;28;19928;-87
2021/09/07 10:36:12;;;;;;;0.80;0.70;;;;;;;17.50;65.69;101920.50;5066833;28;20044;-83
2021/09/07 10:38:49;;;;;;;0.68;0.68;;;;;;;17.51;67.18;101918.56;5059167;28;21003;-86
2021/09/07 10:41:47;;;;;;;0.98;0.77;;;;;;;17.58;68.67;101919.03;5061226;28;20057;-86
2021/09/07 10:44:28;;;;;;;1.42;0.80;;;;;;;17.60;68.26;101908.53;5060193;28;20613;-87
2021/09/07 10:47:04;;;;;;;0.70;0.70;;;;;;;17.53;68.92;101913.59;5056323;28;20056;-88
2021/09/07 10:49:49;;;;;;;1.20;0.88;;;;;;;17.58;67.67;101909.94;5065432;28;20056;-87
2021/09/07 10:52:36;;;;;;;0.88;0.75;;;;;;;17.57;69.21;101895.38;5059524;28;20044;-81
2021/09/07 10:55:18;;;;;;;0.68;0.68;;;;;;;17.78;64.94;101892.31;5055125;28;20070;-86
2021/09/07 10:57:56;;;;;;;0.80;0.70;;;;;;;17.88;64.74;101889.38;5062308;28;20052;-87
2021/09/07 11:00:34;;;;;;;0.98;0.70;;;;;;;17.90;64.86;101895.41;5056672;28;20052;-83
2021/09/07 11:03:12;;;;;;;0.85;0.75;;;;;;;17.94;66.20;101896.50;5054358;28;20053;-87
2021/09/07 11:05:46;;;;;;;0.80;0.80;;;;;;;17.89;68.44;101899.28;5058895;28;20048;-87
2021/09/07 11:08:40;;;;;;;0.60;0.60;;;;;;;18.07;64.55;101891.31;5059828;28;21007;-83
2021/09/07 11:11:27;;;;;;;0.95;0.70;;;;;;;17.99;67.91;101896.41;5055175;28;20052;-87
2021/09/07 11:14:10;;;;;;;;;;;;;;;18.08;67.25;101895.72;5053108;28;20063;-85
2021/09/07 11:16:52;;;;;;;0.70;0.60;;;;;;;18.17;62.87;101882.88;5057075;28;19921;-84
2021/09/07 11:19:20;;;;;;;0.77;0.70;;;;;;;18.24;63.26;101880.53;5056773;28;20051;-84
2021/09/07 11:21:48;;;;;;;0.50;0.50;;;;;;;18.33;62.86;101888.94;5060746;28;20492;-85
2021/09/07 11:24:21;;;;;;;0.60;0.60;;;;;;;18.17;65.21;101885.63;5056718;28;20052;-87
2021/09/07 11:26:59;;;;;;;0.60;0.60;;;;;;;18.19;68.10;101892.47;5062650;28;20060;-85
2021/09/07 11:29:33;;;;;;;0.50;0.50;;;;;;;18.16;72.51;101890.34;5056571;28;20059;-82
2021/09/07 11:32:19;;;;;;;0.75;0.75;;;;;;;18.34;65.62;101888.63;5056865;28;20053;-89
2021/09/07 11:35:10;;;;;;;0.80;0.77;;;;;;;18.43;64.72;101890.69;5055353;28;20048;-88
2021/09/07 11:37:43;;;;;;;0.60;0.60;;;;;;;18.42;67.57;101886.31;5060534;28;20109;-83
2021/09/07 11:40:17;;;;;;;0.60;0.60;;;;;;;18.30;64.10;101881.28;5053932;28;20055;-85
2021/09/07 11:42:52;;;;;;;0.75;0.60;;;;;;;18.22;63.49;101876.47;5058343;28;20067;-86
2021/09/07 11:45:29;;;;;;;2.05;0.70;;;;;;;18.32;65.61;101879.03;5056890;28;21524;-82
2021/09/07 11:48:05;;;;;;;0.68;0.57;;;;;;;18.56;66.01;101873.38;5057840;28;20059;-84
2021/09/07 11:50:39;;;;;;;0.70;0.70;;;;;;;18.41;63.03;101881.91;5056805;28;20052;-87
2021/09/07 11:53:09;;;;;;;0.70;0.70;;;;;;;18.42;65.09;101878.03;5054338;28;20106;-86